Time;durP1;ratioP1;P1;durP2;ratioP2;P2;SDS_P1;SDS_P2;PMS_P1;PMS_P2;Temp;Humidity;BMP_temperature;BMP_pressure;BME280_temperature;BME280_humidity;BME280_pressure;Samples;Min_cycle;Max_cycle;Signal;HPM_P1;HPM_P2
2021/06/26 00:01:15;;;;;;;;;;;21.90;46.70;;;;;;1487207;39;20207;-66
2021/06/26 00:02:36;;;;;;;;;;;21.90;46.70;;;;;;1486934;39;20543;-67
2021/06/26 00:03:57;;;;;;;;;;;21.90;46.80;;;;;;1487170;40;19971;-66
2021/06/26 00:05:18;;;;;;;;;;;21.70;46.70;;;;;;1486873;40;20264;-66
2021/06/26 00:06:39;;;;;;;;;;;21.80;46.70;;;;;;1486682;40;19939;-66
2021/06/26 00:07:59;;;;;;;;;;;21.80;46.80;;;;;;1486729;40;19990;-66
2021/06/26 00:09:20;;;;;;;;;;;21.80;46.80;;;;;;1485713;40;19943;-66
2021/06/26 00:10:42;;;;;;;;;;;21.80;46.80;;;;;;1487193;40;20253;-69
2021/06/26 00:12:03;;;;;;;;;;;21.70;46.80;;;;;;1487876;40;19932;-67
2021/06/26 00:13:24;;;;;;;;;;;21.70;46.80;;;;;;1486177;40;19977;-66
2021/06/26 00:14:45;;;;;;;;;;;21.70;46.80;;;;;;1487029;40;19932;-66
2021/06/26 00:16:06;;;;;;;;;;;21.70;46.80;;;;;;1485989;40;20212;-66
2021/06/26 00:17:27;;;;;;;;;;;21.70;46.90;;;;;;1486497;40;19936;-66
2021/06/26 00:18:47;;;;;;;;;;;21.80;46.90;;;;;;1486892;40;19944;-66
2021/06/26 00:20:08;;;;;;;;;;;21.80;47.00;;;;;;1486502;39;19932;-66
2021/06/26 00:21:29;;;;;;;;;;;21.70;47.00;;;;;;1487137;39;20033;-66
2021/06/26 00:22:50;;;;;;;;;;;21.70;47.10;;;;;;1485045;39;19937;-66
2021/06/26 00:24:11;;;;;;;;;;;21.70;47.10;;;;;;1487236;39;19932;-66
2021/06/26 00:25:32;;;;;;;;;;;21.70;47.10;;;;;;1485935;40;19936;-66
2021/06/26 00:26:52;;;;;;;;;;;21.70;47.10;;;;;;1486976;40;19936;-66
2021/06/26 00:28:13;;;;;;;;;;;21.60;47.00;;;;;;1484640;40;19939;-66
2021/06/26 00:29:34;;;;;;;;;;;21.60;47.00;;;;;;1486542;40;20250;-66
2021/06/26 00:30:55;;;;;;;;;;;21.70;47.10;;;;;;1487575;40;19939;-66
2021/06/26 00:32:16;;;;;;;;;;;21.60;47.10;;;;;;1487909;40;19936;-66
2021/06/26 00:33:36;;;;;;;;;;;21.60;47.10;;;;;;1487957;40;19946;-66
2021/06/26 00:34:57;;;;;;;;;;;21.60;47.20;;;;;;1485775;40;19936;-66
2021/06/26 00:36:18;;;;;;;;;;;21.70;47.30;;;;;;1486454;40;19940;-66
2021/06/26 00:37:39;;;;;;;;;;;21.60;47.30;;;;;;1487775;40;19940;-66
2021/06/26 00:39:00;;;;;;;;;;;21.60;47.30;;;;;;1486395;39;19936;-66
2021/06/26 00:40:20;;;;;;;;;;;21.60;47.30;;;;;;1486003;40;19973;-67
2021/06/26 00:41:41;;;;;;;;;;;21.60;47.30;;;;;;1487087;39;19979;-66
2021/06/26 00:43:02;;;;;;;;;;;21.50;47.30;;;;;;1488303;39;19951;-66
2021/06/26 00:44:26;;;;;;;;;;;21.50;47.30;;;;;;1486185;39;19933;-66
2021/06/26 00:45:47;;;;;;;;;;;21.50;47.50;;;;;;1486981;40;20110;-66
2021/06/26 00:47:12;;;;;;;;;;;21.50;47.40;;;;;;1486241;40;20348;-66
2021/06/26 00:48:33;;;;;;;;;;;21.50;47.50;;;;;;1485548;40;19995;-66
2021/06/26 00:49:53;;;;;;;;;;;21.50;47.50;;;;;;1485953;40;20291;-66
2021/06/26 00:51:14;;;;;;;;;;;21.50;47.50;;;;;;1486010;40;19971;-66
2021/06/26 00:52:35;;;;;;;;;;;21.50;47.50;;;;;;1486928;40;19948;-66
2021/06/26 00:53:56;;;;;;;;;;;21.50;47.50;;;;;;1486740;39;20187;-66
2021/06/26 00:55:18;;;;;;;;;;;21.50;47.50;;;;;;1486225;40;19939;-66
2021/06/26 00:56:39;;;;;;;;;;;21.50;47.60;;;;;;1485887;40;20122;-66
2021/06/26 00:58:01;;;;;;;;;;;21.40;47.50;;;;;;1485897;40;19988;-66
2021/06/26 00:59:22;;;;;;;;;;;21.50;47.60;;;;;;1486514;40;19950;-66
2021/06/26 01:00:43;;;;;;;;;;;21.40;47.60;;;;;;1486467;40;20247;-66
2021/06/26 01:02:06;;;;;;;;;;;21.50;47.70;;;;;;1485958;40;19940;-66
2021/06/26 01:03:27;;;;;;;;;;;21.40;47.70;;;;;;1484682;40;20292;-66
2021/06/26 01:04:48;;;;;;;;;;;21.40;47.70;;;;;;1482181;40;19936;-66
2021/06/26 01:06:09;;;;;;;;;;;21.40;47.70;;;;;;1485473;40;20138;-66
2021/06/26 01:07:29;;;;;;;;;;;21.40;47.70;;;;;;1487439;39;20165;-66
2021/06/26 01:08:50;;;;;;;;;;;21.40;47.80;;;;;;1486763;39;19932;-67
2021/06/26 01:10:11;;;;;;;;;;;21.40;47.80;;;;;;1485553;40;19944;-66
2021/06/26 01:11:32;;;;;;;;;;;21.40;47.80;;;;;;1482986;40;19932;-66
2021/06/26 01:12:53;;;;;;;;;;;21.40;47.80;;;;;;1479879;40;19944;-66
2021/06/26 01:14:14;;;;;;;;;;;21.50;47.90;;;;;;1485642;40;19932;-67
2021/06/26 01:15:35;;;;;;;;;;;21.40;47.90;;;;;;1487649;40;19931;-67
2021/06/26 01:16:56;;;;;;;;;;;21.40;48.50;;;;;;1483183;40;19991;-66
2021/06/26 01:18:17;;;;;;;;;;;21.40;48.00;;;;;;1484954;40;19975;-66
2021/06/26 01:19:37;;;;;;;;;;;21.40;48.00;;;;;;1485194;40;19977;-67
2021/06/26 01:20:58;;;;;;;;;;;21.40;48.00;;;;;;1485434;40;19932;-66
2021/06/26 01:22:22;;;;;;;;;;;21.40;48.00;;;;;;1486388;40;20016;-67
2021/06/26 01:23:49;;;;;;;;;;;21.40;48.00;;;;;;1486242;40;19932;-66
2021/06/26 01:25:15;;;;;;;;;;;21.30;48.00;;;;;;1485137;40;19947;-67
2021/06/26 01:26:36;;;;;;;;;;;21.30;48.00;;;;;;1487334;40;19946;-66
2021/06/26 01:27:58;;;;;;;;;;;21.30;48.10;;;;;;1487076;40;19944;-66
2021/06/26 01:29:19;;;;;;;;;;;21.30;48.10;;;;;;1486839;40;20189;-66
2021/06/26 01:30:40;;;;;;;;;;;21.30;48.10;;;;;;1485241;39;19950;-66
2021/06/26 01:32:04;;;;;;;;;;;21.30;48.20;;;;;;1487287;40;19936;-66
2021/06/26 01:33:25;;;;;;;;;;;21.40;48.20;;;;;;1485537;40;19933;-66
2021/06/26 01:34:46;;;;;;;;;;;21.30;48.20;;;;;;1484300;40;20255;-67
2021/06/26 01:36:07;;;;;;;;;;;21.30;48.20;;;;;;1486593;40;19936;-66
2021/06/26 01:37:27;;;;;;;;;;;21.30;48.30;;;;;;1486549;40;19943;-66
2021/06/26 01:38:55;;;;;;;;;;;21.30;48.30;;;;;;1487537;40;19971;-66
2021/06/26 01:40:17;;;;;;;;;;;21.30;48.30;;;;;;1486641;40;20021;-67
2021/06/26 01:41:38;;;;;;;;;;;21.30;48.30;;;;;;1486602;40;19940;-67
2021/06/26 01:42:59;;;;;;;;;;;21.30;48.30;;;;;;1487585;40;19948;-70
2021/06/26 01:44:20;;;;;;;;;;;21.30;48.30;;;;;;1487417;40;19944;-66
2021/06/26 01:45:41;;;;;;;;;;;21.30;48.40;;;;;;1486836;40;20037;-67
2021/06/26 01:47:04;;;;;;;;;;;21.20;48.30;;;;;;1487247;40;19933;-66
2021/06/26 01:48:25;;;;;;;;;;;21.20;48.40;;;;;;1486325;40;19932;-66
2021/06/26 01:49:46;;;;;;;;;;;21.30;48.40;;;;;;1487684;39;19932;-66
2021/06/26 01:51:06;;;;;;;;;;;21.20;48.40;;;;;;1487913;39;19940;-66
2021/06/26 01:52:27;;;;;;;;;;;21.20;48.40;;;;;;1481917;40;19939;-67
2021/06/26 01:53:48;;;;;;;;;;;21.20;48.40;;;;;;1482963;40;20246;-66
2021/06/26 01:55:09;;;;;;;;;;;21.20;48.50;;;;;;1485570;40;19939;-66
2021/06/26 01:56:30;;;;;;;;;;;21.20;48.50;;;;;;1485699;40;19939;-66
2021/06/26 01:57:51;;;;;;;;;;;21.20;48.50;;;;;;1483970;40;19951;-66
2021/06/26 01:59:12;;;;;;;;;;;21.20;48.50;;;;;;1487173;40;20225;-66
2021/06/26 02:00:33;;;;;;;;;;;21.20;48.50;;;;;;1486413;40;19944;-67
2021/06/26 02:01:53;;;;;;;;;;;21.10;48.50;;;;;;1485429;40;19964;-67
2021/06/26 02:03:14;;;;;;;;;;;21.10;48.50;;;;;;1486537;40;19936;-66
2021/06/26 02:04:35;;;;;;;;;;;21.10;48.50;;;;;;1488099;40;19975;-67
2021/06/26 02:05:56;;;;;;;;;;;21.10;48.60;;;;;;1485861;39;19943;-72
2021/06/26 02:07:17;;;;;;;;;;;21.10;48.60;;;;;;1487128;40;19958;-72
2021/06/26 02:08:37;;;;;;;;;;;21.10;48.60;;;;;;1486619;40;20017;-72
2021/06/26 02:09:59;;;;;;;;;;;21.10;48.60;;;;;;1487019;40;19932;-72
2021/06/26 02:11:20;;;;;;;;;;;21.10;48.60;;;;;;1485442;40;19932;-72
2021/06/26 02:12:41;;;;;;;;;;;21.00;48.60;;;;;;1485033;40;19937;-72
2021/06/26 02:14:02;;;;;;;;;;;21.10;48.70;;;;;;1487491;40;19983;-72
2021/06/26 02:15:23;;;;;;;;;;;21.00;48.70;;;;;;1487062;40;20145;-72
2021/06/26 02:16:43;;;;;;;;;;;21.10;48.70;;;;;;1487164;40;19991;-72
2021/06/26 02:18:04;;;;;;;;;;;21.00;48.70;;;;;;1486236;40;20652;-72
2021/06/26 02:19:25;;;;;;;;;;;21.00;48.70;;;;;;1487473;40;19940;-72
2021/06/26 02:20:46;;;;;;;;;;;21.00;48.80;;;;;;1481844;40;19952;-72
2021/06/26 02:22:07;;;;;;;;;;;21.00;48.80;;;;;;1484032;40;19932;-72
2021/06/26 02:23:28;;;;;;;;;;;21.10;48.90;;;;;;1485511;40;19974;-72
2021/06/26 02:24:48;;;;;;;;;;;20.90;48.80;;;;;;1486164;40;19975;-72
2021/06/26 02:26:09;;;;;;;;;;;20.90;48.80;;;;;;1485878;40;20003;-72
2021/06/26 02:27:30;;;;;;;;;;;20.90;48.80;;;;;;1486928;40;20020;-72
2021/06/26 02:28:51;;;;;;;;;;;20.90;48.90;;;;;;1486716;39;20037;-72
2021/06/26 02:30:12;;;;;;;;;;;20.90;48.90;;;;;;1486571;40;19932;-72
2021/06/26 02:31:33;;;;;;;;;;;20.90;48.90;;;;;;1482572;40;19936;-72
2021/06/26 02:32:54;;;;;;;;;;;20.90;49.00;;;;;;1485632;40;19936;-72
2021/06/26 02:34:15;;;;;;;;;;;20.90;49.00;;;;;;1485514;40;20173;-72
2021/06/26 02:35:36;;;;;;;;;;;20.80;48.90;;;;;;1486166;40;19932;-72
2021/06/26 02:36:57;;;;;;;;;;;20.80;49.00;;;;;;1486480;40;19952;-72
2021/06/26 02:38:18;;;;;;;;;;;20.80;49.00;;;;;;1485411;40;19932;-72
2021/06/26 02:39:38;;;;;;;;;;;20.80;49.00;;;;;;1487298;40;20014;-72
2021/06/26 02:40:59;;;;;;;;;;;20.80;49.10;;;;;;1486637;40;20017;-72
2021/06/26 02:42:20;;;;;;;;;;;20.80;49.10;;;;;;1486165;40;19932;-72
2021/06/26 02:43:41;;;;;;;;;;;20.80;49.10;;;;;;1485986;40;20154;-72
2021/06/26 02:45:03;;;;;;;;;;;20.80;49.10;;;;;;1485732;40;20154;-72
2021/06/26 02:46:23;;;;;;;;;;;20.80;49.20;;;;;;1486502;40;20199;-72
2021/06/26 02:47:44;;;;;;;;;;;20.80;49.20;;;;;;1486219;40;19976;-72
2021/06/26 02:49:05;;;;;;;;;;;20.70;49.10;;;;;;1485322;40;19983;-72
2021/06/26 02:50:26;;;;;;;;;;;20.90;49.20;;;;;;1486351;40;19971;-72
2021/06/26 02:51:48;;;;;;;;;;;20.70;49.20;;;;;;1485960;40;19932;-72
2021/06/26 02:53:09;;;;;;;;;;;20.70;49.20;;;;;;1484742;40;20174;-72
2021/06/26 02:54:30;;;;;;;;;;;20.70;49.20;;;;;;1486519;40;19939;-72
2021/06/26 02:55:55;;;;;;;;;;;20.70;49.20;;;;;;1485735;40;20116;-72
2021/06/26 02:57:16;;;;;;;;;;;20.70;49.20;;;;;;1486368;39;19932;-72
2021/06/26 02:58:37;;;;;;;;;;;20.70;49.20;;;;;;1487397;40;19959;-72
2021/06/26 02:59:58;;;;;;;;;;;20.70;49.20;;;;;;1485862;40;19944;-72
2021/06/26 03:01:19;;;;;;;;;;;20.70;49.30;;;;;;1486566;40;19990;-72
2021/06/26 03:02:40;;;;;;;;;;;20.60;49.30;;;;;;1487316;40;19944;-72
2021/06/26 03:04:01;;;;;;;;;;;20.60;49.30;;;;;;1485854;40;19932;-72
2021/06/26 03:05:22;;;;;;;;;;;20.80;49.40;;;;;;1485339;40;19940;-72
2021/06/26 03:06:43;;;;;;;;;;;20.60;49.40;;;;;;1487371;39;19940;-72
2021/06/26 03:08:04;;;;;;;;;;;20.60;49.40;;;;;;1486342;39;19952;-72
2021/06/26 03:09:24;;;;;;;;;;;20.60;49.40;;;;;;1486752;39;20164;-72
2021/06/26 03:10:45;;;;;;;;;;;20.60;49.40;;;;;;1487166;40;19940;-72
2021/06/26 03:12:06;;;;;;;;;;;20.60;49.40;;;;;;1486522;40;19932;-73
2021/06/26 03:13:27;;;;;;;;;;;20.60;49.50;;;;;;1486090;40;20007;-72
2021/06/26 03:14:48;;;;;;;;;;;20.60;49.50;;;;;;1485955;40;20248;-72
2021/06/26 03:16:09;;;;;;;;;;;20.50;49.50;;;;;;1484902;40;19932;-72
2021/06/26 03:17:30;;;;;;;;;;;20.50;49.50;;;;;;1486387;39;19936;-72
2021/06/26 03:18:51;;;;;;;;;;;20.50;49.50;;;;;;1486431;40;19932;-72
2021/06/26 03:20:11;;;;;;;;;;;20.50;49.50;;;;;;1485682;39;19936;-72
2021/06/26 03:21:32;;;;;;;;;;;20.50;49.60;;;;;;1487414;40;19936;-72
2021/06/26 03:22:53;;;;;;;;;;;20.60;49.70;;;;;;1485245;40;19936;-72
2021/06/26 03:24:14;;;;;;;;;;;20.50;49.60;;;;;;1487638;40;20264;-72
2021/06/26 03:25:35;;;;;;;;;;;20.50;49.60;;;;;;1487106;40;19943;-72
2021/06/26 03:26:56;;;;;;;;;;;20.50;49.60;;;;;;1485210;40;19940;-72
2021/06/26 03:28:17;;;;;;;;;;;20.50;49.60;;;;;;1486009;39;19936;-72
2021/06/26 03:29:37;;;;;;;;;;;20.50;49.60;;;;;;1487005;40;20044;-73
2021/06/26 03:30:59;;;;;;;;;;;20.50;49.60;;;;;;1485677;40;19932;-73
2021/06/26 03:32:19;;;;;;;;;;;20.40;49.70;;;;;;1485924;40;19933;-73
2021/06/26 03:33:40;;;;;;;;;;;20.40;49.70;;;;;;1485240;40;20029;-72
2021/06/26 03:35:01;;;;;;;;;;;20.50;49.80;;;;;;1485653;40;20232;-73
2021/06/26 03:36:24;;;;;;;;;;;20.40;49.70;;;;;;1487105;40;19936;-74
2021/06/26 03:37:45;;;;;;;;;;;20.40;49.70;;;;;;1487342;40;20317;-73
2021/06/26 03:39:05;;;;;;;;;;;20.40;49.70;;;;;;1485638;40;19940;-73
2021/06/26 03:40:26;;;;;;;;;;;20.40;49.70;;;;;;1487481;40;19966;-73
2021/06/26 03:41:47;;;;;;;;;;;20.40;49.80;;;;;;1486578;39;19936;-72
2021/06/26 03:43:08;;;;;;;;;;;20.30;49.80;;;;;;1486611;40;19932;-75
2021/06/26 03:44:29;;;;;;;;;;;20.30;49.80;;;;;;1484657;40;19998;-72
2021/06/26 03:45:49;;;;;;;;;;;20.40;50.30;;;;;;1484017;40;19932;-71
2021/06/26 03:47:10;;;;;;;;;;;20.30;49.90;;;;;;1486969;40;20053;-71
2021/06/26 03:48:31;;;;;;;;;;;20.30;49.90;;;;;;1486483;40;19979;-71
2021/06/26 03:49:52;;;;;;;;;;;20.30;50.00;;;;;;1485517;40;19944;-71
2021/06/26 03:51:13;;;;;;;;;;;20.30;50.50;;;;;;1486652;40;19964;-71
2021/06/26 03:52:33;;;;;;;;;;;20.30;50.00;;;;;;1486046;40;19932;-71
2021/06/26 03:53:54;;;;;;;;;;;20.30;50.00;;;;;;1482269;40;19936;-71
2021/06/26 03:55:15;;;;;;;;;;;20.30;50.00;;;;;;1485170;40;20329;-71
2021/06/26 03:56:36;;;;;;;;;;;20.30;50.00;;;;;;1487082;40;19940;-71
2021/06/26 03:57:57;;;;;;;;;;;20.30;50.10;;;;;;1488068;40;20238;-71
2021/06/26 03:59:17;;;;;;;;;;;20.30;50.10;;;;;;1486415;39;20254;-71
2021/06/26 04:00:38;;;;;;;;;;;20.30;50.10;;;;;;1487976;39;19951;-71
2021/06/26 04:01:59;;;;;;;;;;;20.20;50.10;;;;;;1486775;40;19956;-71
2021/06/26 04:03:20;;;;;;;;;;;20.30;50.20;;;;;;1485893;40;19940;-71
2021/06/26 04:04:41;;;;;;;;;;;20.20;50.20;;;;;;1487173;39;19932;-71
2021/06/26 04:06:01;;;;;;;;;;;20.30;50.30;;;;;;1487385;40;20250;-71
2021/06/26 04:07:22;;;;;;;;;;;20.20;50.30;;;;;;1486953;40;19989;-71
2021/06/26 04:08:43;;;;;;;;;;;20.20;50.30;;;;;;1486076;40;20210;-71
2021/06/26 04:10:05;;;;;;;;;;;20.20;50.30;;;;;;1486320;40;19968;-71
2021/06/26 04:11:26;;;;;;;;;;;20.20;50.40;;;;;;1485323;40;20031;-71
2021/06/26 04:12:46;;;;;;;;;;;20.20;50.40;;;;;;1486200;40;20146;-71
2021/06/26 04:14:07;;;;;;;;;;;20.20;50.40;;;;;;1486498;40;20037;-71
2021/06/26 04:15:28;;;;;;;;;;;20.20;50.40;;;;;;1485547;40;20035;-71
2021/06/26 04:16:49;;;;;;;;;;;20.20;50.40;;;;;;1485816;40;20013;-71
2021/06/26 04:18:10;;;;;;;;;;;20.20;50.50;;;;;;1485608;40;20078;-71
2021/06/26 04:19:31;;;;;;;;;;;20.30;50.60;;;;;;1486013;40;20017;-71
2021/06/26 04:20:52;;;;;;;;;;;20.20;50.50;;;;;;1485510;39;20033;-71
2021/06/26 04:22:12;;;;;;;;;;;20.20;50.50;;;;;;1485404;40;20219;-71
2021/06/26 04:23:33;;;;;;;;;;;20.20;50.60;;;;;;1487242;40;19936;-71
2021/06/26 04:24:54;;;;;;;;;;;20.20;50.60;;;;;;1485617;40;19995;-71
2021/06/26 04:26:15;;;;;;;;;;;20.30;50.70;;;;;;1483212;40;19972;-70
2021/06/26 04:27:36;;;;;;;;;;;20.30;50.70;;;;;;1485114;40;20161;-71
2021/06/26 04:28:56;;;;;;;;;;;20.20;50.60;;;;;;1481334;40;20022;-71
2021/06/26 04:30:17;;;;;;;;;;;20.30;50.70;;;;;;1486598;40;19946;-71
2021/06/26 04:31:38;;;;;;;;;;;20.30;50.80;;;;;;1486346;40;19948;-72
2021/06/26 04:32:59;;;;;;;;;;;20.30;50.80;;;;;;1486794;40;20063;-70
2021/06/26 04:34:20;;;;;;;;;;;20.30;50.80;;;;;;1483263;40;20076;-72
2021/06/26 04:35:41;;;;;;;;;;;20.30;50.90;;;;;;1484389;40;20186;-70
2021/06/26 04:37:02;;;;;;;;;;;20.30;50.80;;;;;;1486487;40;20014;-70
2021/06/26 04:38:22;;;;;;;;;;;20.30;50.90;;;;;;1486193;40;19993;-72
2021/06/26 04:39:43;;;;;;;;;;;20.30;50.90;;;;;;1486044;40;20188;-72
2021/06/26 04:41:04;;;;;;;;;;;20.30;50.90;;;;;;1485668;40;19940;-72
2021/06/26 04:42:25;;;;;;;;;;;20.30;50.90;;;;;;1482241;40;20189;-73
2021/06/26 04:43:45;;;;;;;;;;;20.30;50.90;;;;;;1485164;39;19952;-70
2021/06/26 04:45:06;;;;;;;;;;;20.20;50.90;;;;;;1486905;39;19968;-73
2021/06/26 04:46:27;;;;;;;;;;;20.30;51.00;;;;;;1487407;39;20284;-71
2021/06/26 04:47:48;;;;;;;;;;;20.30;51.00;;;;;;1488243;40;19951;-72
2021/06/26 04:49:09;;;;;;;;;;;20.30;51.10;;;;;;1485215;40;19940;-72
2021/06/26 04:50:31;;;;;;;;;;;20.30;51.10;;;;;;1487738;40;19997;-72
2021/06/26 04:51:52;;;;;;;;;;;20.30;51.10;;;;;;1487176;40;19939;-73
2021/06/26 04:53:13;;;;;;;;;;;20.40;51.10;;;;;;1487458;40;20021;-71
2021/06/26 04:54:34;;;;;;;;;;;20.40;51.10;;;;;;1488185;40;19932;-72
2021/06/26 04:55:54;;;;;;;;;;;20.40;51.20;;;;;;1486737;40;19969;-72
2021/06/26 04:57:15;;;;;;;;;;;20.40;51.20;;;;;;1486186;40;20173;-71
2021/06/26 04:58:36;;;;;;;;;;;20.40;51.20;;;;;;1484830;40;19972;-72
2021/06/26 04:59:57;;;;;;;;;;;20.40;51.20;;;;;;1485534;40;20673;-71
2021/06/26 05:01:18;;;;;;;;;;;20.40;51.30;;;;;;1484241;39;19932;-71
2021/06/26 05:02:38;;;;;;;;;;;20.40;51.30;;;;;;1484764;40;19936;-71
2021/06/26 05:04:00;;;;;;;;;;;20.40;51.30;;;;;;1487929;39;19970;-71
2021/06/26 05:05:20;;;;;;;;;;;20.40;51.30;;;;;;1485693;39;19955;-72
2021/06/26 05:06:41;;;;;;;;;;;20.40;51.30;;;;;;1487227;40;19936;-71
2021/06/26 05:08:02;;;;;;;;;;;20.40;51.30;;;;;;1487646;40;20319;-72
2021/06/26 05:09:23;;;;;;;;;;;20.40;51.30;;;;;;1486193;40;20021;-71
2021/06/26 05:10:44;;;;;;;;;;;20.40;51.30;;;;;;1487141;40;19940;-72
2021/06/26 05:12:05;;;;;;;;;;;20.40;51.30;;;;;;1487735;40;20138;-72
2021/06/26 05:13:26;;;;;;;;;;;20.40;51.40;;;;;;1486399;40;19939;-70
2021/06/26 05:14:47;;;;;;;;;;;20.40;51.40;;;;;;1488380;40;19947;-72
2021/06/26 05:16:07;;;;;;;;;;;20.40;51.40;;;;;;1487110;40;20028;-71
2021/06/26 05:17:28;;;;;;;;;;;20.40;51.40;;;;;;1485085;40;19962;-72
2021/06/26 05:18:49;;;;;;;;;;;20.40;51.50;;;;;;1484538;40;19952;-71
2021/06/26 05:20:14;;;;;;;;;;;20.40;51.50;;;;;;1486136;40;19976;-71
2021/06/26 05:21:35;;;;;;;;;;;20.40;51.50;;;;;;1486429;40;19936;-71
2021/06/26 05:22:56;;;;;;;;;;;20.40;51.50;;;;;;1484375;40;19968;-72
2021/06/26 05:24:17;;;;;;;;;;;20.40;51.50;;;;;;1487438;39;19972;-72
2021/06/26 05:25:37;;;;;;;;;;;20.40;51.50;;;;;;1485793;40;19944;-72
2021/06/26 05:26:58;;;;;;;;;;;20.40;51.60;;;;;;1485269;40;19933;-71
2021/06/26 05:28:19;;;;;;;;;;;20.40;51.60;;;;;;1486644;40;19954;-72
2021/06/26 05:29:42;;;;;;;;;;;20.40;51.60;;;;;;1486629;40;20063;-72
2021/06/26 05:31:03;;;;;;;;;;;20.40;51.60;;;;;;1487743;40;20380;-72
2021/06/26 05:32:24;;;;;;;;;;;20.40;51.60;;;;;;1485371;40;19980;-72
2021/06/26 05:33:45;;;;;;;;;;;20.40;51.60;;;;;;1484588;40;20262;-74
2021/06/26 05:35:07;;;;;;;;;;;20.40;51.70;;;;;;1488200;40;19948;-75
2021/06/26 05:36:27;;;;;;;;;;;20.50;51.70;;;;;;1486805;40;19947;-72
2021/06/26 05:37:48;;;;;;;;;;;20.40;51.70;;;;;;1487751;40;19948;-72
2021/06/26 05:39:09;;;;;;;;;;;20.40;51.70;;;;;;1487841;40;19942;-71
2021/06/26 05:40:30;;;;;;;;;;;20.40;51.80;;;;;;1484428;40;19962;-72
2021/06/26 05:41:50;;;;;;;;;;;20.50;51.80;;;;;;1483107;40;20325;-72
2021/06/26 05:43:11;;;;;;;;;;;20.50;51.80;;;;;;1484518;39;19939;-72
2021/06/26 05:44:32;;;;;;;;;;;20.50;51.90;;;;;;1487678;39;19931;-72
2021/06/26 05:45:53;;;;;;;;;;;20.50;51.90;;;;;;1486118;40;19948;-72
2021/06/26 05:47:13;;;;;;;;;;;20.50;51.90;;;;;;1487163;40;19976;-73
2021/06/26 05:48:34;;;;;;;;;;;20.50;51.90;;;;;;1486279;40;19984;-72
2021/06/26 05:49:55;;;;;;;;;;;20.60;52.00;;;;;;1482663;40;19967;-72
2021/06/26 05:51:17;;;;;;;;;;;20.50;52.00;;;;;;1484829;40;19941;-71
2021/06/26 05:52:45;;;;;;;;;;;20.60;52.10;;;;;;1486321;40;20227;-72
2021/06/26 05:54:06;;;;;;;;;;;20.60;52.10;;;;;;1485757;40;20029;-72
2021/06/26 05:55:28;;;;;;;;;;;20.60;52.10;;;;;;1486811;40;19935;-72
2021/06/26 05:56:48;;;;;;;;;;;20.60;52.10;;;;;;1486481;40;19939;-71
2021/06/26 05:58:09;;;;;;;;;;;20.60;52.10;;;;;;1486500;40;19939;-72
2021/06/26 05:59:30;;;;;;;;;;;20.60;52.20;;;;;;1487086;40;19931;-72
2021/06/26 06:00:51;;;;;;;;;;;20.70;52.20;;;;;;1486186;40;19975;-72
2021/06/26 06:02:15;;;;;;;;;;;20.70;52.30;;;;;;1487290;40;19938;-72
2021/06/26 06:03:35;;;;;;;;;;;20.70;52.30;;;;;;1487592;40;19963;-72
2021/06/26 06:04:56;;;;;;;;;;;20.70;52.20;;;;;;1482239;40;19952;-72
2021/06/26 06:06:17;;;;;;;;;;;20.70;52.20;;;;;;1483722;40;19937;-72
2021/06/26 06:07:38;;;;;;;;;;;20.80;52.30;;;;;;1487367;40;20317;-72
2021/06/26 06:08:59;;;;;;;;;;;20.80;52.20;;;;;;1485967;40;19941;-72
2021/06/26 06:10:20;;;;;;;;;;;20.80;52.20;;;;;;1486990;40;20302;-72
2021/06/26 06:11:41;;;;;;;;;;;20.80;52.20;;;;;;1487495;40;20174;-72
2021/06/26 06:13:02;;;;;;;;;;;20.80;52.20;;;;;;1486615;40;20492;-72
2021/06/26 06:14:23;;;;;;;;;;;20.80;52.30;;;;;;1486781;40;20341;-74
2021/06/26 06:15:45;;;;;;;;;;;20.90;52.30;;;;;;1485535;40;20321;-72
2021/06/26 06:17:05;;;;;;;;;;;20.90;52.30;;;;;;1487490;40;19986;-72
2021/06/26 06:18:26;;;;;;;;;;;20.90;52.30;;;;;;1486059;40;20250;-72
2021/06/26 06:19:47;;;;;;;;;;;20.90;52.30;;;;;;1486073;40;19979;-72
2021/06/26 06:21:08;;;;;;;;;;;21.00;52.30;;;;;;1482233;40;19943;-72
2021/06/26 06:22:29;;;;;;;;;;;21.00;52.20;;;;;;1484326;40;19932;-72
2021/06/26 06:23:49;;;;;;;;;;;21.00;52.30;;;;;;1486145;40;19936;-72
2021/06/26 06:25:12;;;;;;;;;;;21.00;52.30;;;;;;1486126;39;19936;-72
2021/06/26 06:26:32;;;;;;;;;;;21.00;52.20;;;;;;1487157;40;20385;-72
2021/06/26 06:27:53;;;;;;;;;;;21.10;52.20;;;;;;1486909;40;19935;-72
2021/06/26 06:29:14;;;;;;;;;;;21.10;52.20;;;;;;1486212;40;20253;-72
2021/06/26 06:30:35;;;;;;;;;;;21.10;52.20;;;;;;1486219;40;19947;-72
2021/06/26 06:31:56;;;;;;;;;;;21.10;52.20;;;;;;1485994;40;19936;-72
2021/06/26 06:33:17;;;;;;;;;;;21.20;52.30;;;;;;1485733;40;19940;-72
2021/06/26 06:34:38;;;;;;;;;;;21.20;52.30;;;;;;1487866;40;20185;-72
2021/06/26 06:36:00;;;;;;;;;;;21.20;52.30;;;;;;1484748;40;19956;-72
2021/06/26 06:37:21;;;;;;;;;;;21.30;52.30;;;;;;1486979;40;19956;-72
2021/06/26 06:38:42;;;;;;;;;;;21.30;52.40;;;;;;1486843;40;19980;-72
2021/06/26 06:40:04;;;;;;;;;;;21.30;52.40;;;;;;1482235;40;19955;-72
2021/06/26 06:41:25;;;;;;;;;;;21.30;52.30;;;;;;1483972;40;19940;-72
2021/06/26 06:42:46;;;;;;;;;;;21.40;52.30;;;;;;1486960;39;19936;-72
2021/06/26 06:44:07;;;;;;;;;;;21.40;52.40;;;;;;1487463;39;19932;-72
2021/06/26 06:45:28;;;;;;;;;;;21.40;52.40;;;;;;1486065;39;19976;-72
2021/06/26 06:46:49;;;;;;;;;;;21.50;52.30;;;;;;1486688;40;20270;-72
2021/06/26 06:48:09;;;;;;;;;;;21.50;52.40;;;;;;1486557;40;19948;-72
2021/06/26 06:49:30;;;;;;;;;;;21.50;52.30;;;;;;1487740;40;19936;-72
2021/06/26 06:50:51;;;;;;;;;;;21.60;52.30;;;;;;1486649;39;19946;-72
2021/06/26 06:52:12;;;;;;;;;;;21.60;52.30;;;;;;1486782;39;19940;-72
2021/06/26 06:53:33;;;;;;;;;;;21.60;52.30;;;;;;1486427;40;19987;-72
2021/06/26 06:54:53;;;;;;;;;;;21.70;52.40;;;;;;1485919;40;19965;-72
2021/06/26 06:56:14;;;;;;;;;;;21.70;52.40;;;;;;1485167;40;20036;-72
2021/06/26 06:57:35;;;;;;;;;;;21.70;52.40;;;;;;1485793;40;20045;-72
2021/06/26 06:58:56;;;;;;;;;;;21.70;52.40;;;;;;1487138;40;19979;-72
2021/06/26 07:00:17;;;;;;;;;;;21.80;52.50;;;;;;1486966;39;19939;-72
2021/06/26 07:01:37;;;;;;;;;;;21.90;52.50;;;;;;1486713;40;19943;-72
2021/06/26 07:02:58;;;;;;;;;;;21.90;52.50;;;;;;1487000;40;20227;-73
2021/06/26 07:04:19;;;;;;;;;;;21.90;52.50;;;;;;1485259;40;19940;-72
2021/06/26 07:05:40;;;;;;;;;;;22.00;52.50;;;;;;1486636;40;20215;-72
2021/06/26 07:07:01;;;;;;;;;;;22.00;52.50;;;;;;1486184;39;20246;-72
2021/06/26 07:08:22;;;;;;;;;;;22.10;52.50;;;;;;1486104;39;20193;-72
2021/06/26 07:09:42;;;;;;;;;;;22.10;52.50;;;;;;1486673;40;19966;-72
2021/06/26 07:11:03;;;;;;;;;;;22.10;52.40;;;;;;1485659;40;19968;-72
2021/06/26 07:12:24;;;;;;;;;;;22.20;52.50;;;;;;1486404;40;19991;-72
2021/06/26 07:13:45;;;;;;;;;;;22.20;52.40;;;;;;1486724;40;19952;-71
2021/06/26 07:15:06;;;;;;;;;;;22.20;52.40;;;;;;1483981;40;19964;-72
2021/06/26 07:16:27;;;;;;;;;;;22.20;52.40;;;;;;1485747;40;19962;-72
2021/06/26 07:17:48;;;;;;;;;;;22.30;52.40;;;;;;1483461;40;20126;-72
2021/06/26 07:19:08;;;;;;;;;;;22.30;52.40;;;;;;1485820;40;19933;-72
2021/06/26 07:20:29;;;;;;;;;;;22.40;52.50;;;;;;1485750;40;20013;-72
2021/06/26 07:21:50;;;;;;;;;;;22.40;52.40;;;;;;1486096;40;19932;-72
2021/06/26 07:23:11;;;;;;;;;;;22.50;52.30;;;;;;1487087;40;19994;-72
2021/06/26 07:24:31;;;;;;;;;;;22.50;52.30;;;;;;1487434;40;19952;-72
2021/06/26 07:25:52;;;;;;;;;;;22.50;52.20;;;;;;1486837;40;19936;-72
2021/06/26 07:27:13;;;;;;;;;;;22.50;52.10;;;;;;1486779;39;19947;-72
2021/06/26 07:28:34;;;;;;;;;;;22.60;52.20;;;;;;1487337;39;19947;-71
2021/06/26 07:29:54;;;;;;;;;;;22.60;52.20;;;;;;1486518;40;19936;-72
2021/06/26 07:31:15;;;;;;;;;;;22.70;52.20;;;;;;1487135;40;19932;-71
2021/06/26 07:32:36;;;;;;;;;;;22.70;52.20;;;;;;1485597;40;19940;-72
2021/06/26 07:33:57;;;;;;;;;;;22.80;52.20;;;;;;1487395;40;19943;-72
2021/06/26 07:35:18;;;;;;;;;;;22.80;52.30;;;;;;1486348;40;19932;-71
2021/06/26 07:36:39;;;;;;;;;;;22.80;52.30;;;;;;1487122;40;19932;-72
2021/06/26 07:37:59;;;;;;;;;;;22.90;52.40;;;;;;1487505;40;19940;-72
2021/06/26 07:39:20;;;;;;;;;;;22.90;52.30;;;;;;1486945;40;20333;-72
2021/06/26 07:40:41;;;;;;;;;;;22.90;52.30;;;;;;1485733;40;19968;-72
2021/06/26 07:42:02;;;;;;;;;;;22.90;52.30;;;;;;1485522;40;20669;-71
2021/06/26 07:43:23;;;;;;;;;;;23.00;52.30;;;;;;1487521;40;20003;-72
2021/06/26 07:44:43;;;;;;;;;;;23.00;52.30;;;;;;1486726;40;19932;-73
2021/06/26 07:46:04;;;;;;;;;;;23.10;52.30;;;;;;1484197;40;19951;-73
2021/06/26 07:47:25;;;;;;;;;;;23.10;52.30;;;;;;1487253;40;19955;-71
2021/06/26 07:48:46;;;;;;;;;;;23.20;52.30;;;;;;1485681;39;19936;-71
2021/06/26 07:50:08;;;;;;;;;;;23.20;52.80;;;;;;1487300;39;19932;-72
2021/06/26 07:51:28;;;;;;;;;;;23.20;52.30;;;;;;1485821;40;20168;-71